sensor_id;sensor_type;location;lat;lon;timestamp;pressure;altitude;pressure_sealevel;temperature;humidity
15646;BME280;7922;43.622;1.476;2024-03-08T00:02:01;98861.06;;;10.23;76.34
15646;BME280;7922;43.622;1.476;2024-03-08T00:04:26;98875.22;;;10.38;76.86
15646;BME280;7922;43.622;1.476;2024-03-08T00:06:52;98767.91;;;9.74;76.01
15646;BME280;7922;43.622;1.476;2024-03-08T00:09:17;98809.81;;;9.96;76.05
15646;BME280;7922;43.622;1.476;2024-03-08T00:11:42;98864.09;;;10.17;76.08
15646;BME280;7922;43.622;1.476;2024-03-08T00:14:08;98744.72;;;9.63;75.65
15646;BME280;7922;43.622;1.476;2024-03-08T00:16:33;98818.59;;;9.96;75.57
15646;BME280;7922;43.622;1.476;2024-03-08T00:19:01;98903.16;;;10.44;76.50
15646;BME280;7922;43.622;1.476;2024-03-08T00:21:26;98893.97;;;10.49;76.88
15646;BME280;7922;43.622;1.476;2024-03-08T00:23:52;98877.88;;;10.38;76.96
15646;BME280;7922;43.622;1.476;2024-03-08T00:26:17;98776.41;;;9.79;77.16
15646;BME280;7922;43.622;1.476;2024-03-08T00:28:42;98878.81;;;10.37;77.09
15646;BME280;7922;43.622;1.476;2024-03-08T00:31:08;98860.22;;;10.39;76.77
15646;BME280;7922;43.622;1.476;2024-03-08T00:33:33;98841.09;;;10.33;75.74
15646;BME280;7922;43.622;1.476;2024-03-08T00:35:58;98800.56;;;10.03;76.45
15646;BME280;7922;43.622;1.476;2024-03-08T00:38:23;98828.56;;;10.21;76.45
15646;BME280;7922;43.622;1.476;2024-03-08T00:40:49;98746.81;;;9.72;75.91
15646;BME280;7922;43.622;1.476;2024-03-08T00:43:14;98846.03;;;10.40;74.98
15646;BME280;7922;43.622;1.476;2024-03-08T00:45:39;98787.16;;;10.06;74.77
15646;BME280;7922;43.622;1.476;2024-03-08T00:48:05;98849.53;;;10.40;75.17
15646;BME280;7922;43.622;1.476;2024-03-08T00:50:30;98741.16;;;9.78;74.64
15646;BME280;7922;43.622;1.476;2024-03-08T00:52:55;98854.53;;;10.45;75.09
15646;BME280;7922;43.622;1.476;2024-03-08T00:55:21;98707.97;;;9.58;74.82
15646;BME280;7922;43.622;1.476;2024-03-08T00:57:46;98866.84;;;10.46;74.99
15646;BME280;7922;43.622;1.476;2024-03-08T01:00:14;98746.47;;;9.78;75.07
15646;BME280;7922;43.622;1.476;2024-03-08T01:02:40;98847.00;;;10.39;74.24
15646;BME280;7922;43.622;1.476;2024-03-08T01:05:05;98802.28;;;10.18;74.12
15646;BME280;7922;43.622;1.476;2024-03-08T01:07:31;98748.75;;;9.84;73.42
15646;BME280;7922;43.622;1.476;2024-03-08T01:09:56;98818.50;;;10.28;73.92
15646;BME280;7922;43.622;1.476;2024-03-08T01:12:21;98859.28;;;10.54;73.99
15646;BME280;7922;43.622;1.476;2024-03-08T01:14:47;98823.53;;;10.32;73.49
15646;BME280;7922;43.622;1.476;2024-03-08T01:17:15;98814.56;;;10.35;73.50
15646;BME280;7922;43.622;1.476;2024-03-08T01:19:40;98808.13;;;10.39;73.20
15646;BME280;7922;43.622;1.476;2024-03-08T01:22:05;98846.25;;;10.65;73.96
15646;BME280;7922;43.622;1.476;2024-03-08T01:24:31;98814.84;;;10.45;73.98
15646;BME280;7922;43.622;1.476;2024-03-08T01:26:56;98702.63;;;9.74;74.42
15646;BME280;7922;43.622;1.476;2024-03-08T01:29:21;98820.22;;;10.43;75.02
15646;BME280;7922;43.622;1.476;2024-03-08T01:31:46;98800.91;;;10.27;75.26
15646;BME280;7922;43.622;1.476;2024-03-08T01:34:12;98781.59;;;10.25;75.44
15646;BME280;7922;43.622;1.476;2024-03-08T01:36:37;98683.28;;;9.74;75.50
15646;BME280;7922;43.622;1.476;2024-03-08T01:39:05;98790.72;;;10.35;75.72
15646;BME280;7922;43.622;1.476;2024-03-08T01:41:30;98782.97;;;10.32;76.09
15646;BME280;7922;43.622;1.476;2024-03-08T01:43:55;98819.47;;;10.55;76.33
15646;BME280;7922;43.622;1.476;2024-03-08T01:46:21;98773.75;;;10.23;76.35
15646;BME280;7922;43.622;1.476;2024-03-08T01:48:47;98787.03;;;10.38;76.16
15646;BME280;7922;43.622;1.476;2024-03-08T01:51:12;98789.59;;;10.53;75.97
15646;BME280;7922;43.622;1.476;2024-03-08T01:53:38;98796.22;;;10.60;75.93
15646;BME280;7922;43.622;1.476;2024-03-08T01:56:05;98692.84;;;10.05;75.91
15646;BME280;7922;43.622;1.476;2024-03-08T01:58:31;98726.63;;;10.30;76.16
15646;BME280;7922;43.622;1.476;2024-03-08T02:00:57;98640.19;;;9.72;76.20
15646;BME280;7922;43.622;1.476;2024-03-08T02:03:22;98705.41;;;10.01;76.27
15646;BME280;7922;43.622;1.476;2024-03-08T02:05:50;98665.31;;;9.79;75.42
15646;BME280;7922;43.622;1.476;2024-03-08T02:08:16;98616.75;;;9.65;74.52
15646;BME280;7922;43.622;1.476;2024-03-08T02:10:41;98704.19;;;10.21;74.52
15646;BME280;7922;43.622;1.476;2024-03-08T02:13:07;98689.25;;;10.20;74.13
15646;BME280;7922;43.622;1.476;2024-03-08T02:15:54;98729.06;;;10.62;73.22
15646;BME280;7922;43.622;1.476;2024-03-08T02:18:21;98699.50;;;10.41;73.26
15646;BME280;7922;43.622;1.476;2024-03-08T02:20:48;98737.38;;;10.55;73.80
15646;BME280;7922;43.622;1.476;2024-03-08T02:23:14;98677.81;;;10.20;73.66
15646;BME280;7922;43.622;1.476;2024-03-08T02:25:39;98696.56;;;10.31;72.84
15646;BME280;7922;43.622;1.476;2024-03-08T02:28:05;98652.31;;;10.04;72.56
15646;BME280;7922;43.622;1.476;2024-03-08T02:30:30;98621.81;;;9.99;72.66
15646;BME280;7922;43.622;1.476;2024-03-08T02:32:56;98644.66;;;10.14;71.34
15646;BME280;7922;43.622;1.476;2024-03-08T02:35:21;98675.19;;;10.34;71.24
15646;BME280;7922;43.622;1.476;2024-03-08T02:37:46;98693.88;;;10.59;70.97
15646;BME280;7922;43.622;1.476;2024-03-08T02:40:12;98687.19;;;10.54;70.47
15646;BME280;7922;43.622;1.476;2024-03-08T02:42:37;98690.50;;;10.57;70.98
15646;BME280;7922;43.622;1.476;2024-03-08T02:45:06;98626.44;;;10.09;70.56
15646;BME280;7922;43.622;1.476;2024-03-08T02:47:31;98646.72;;;10.23;71.32
15646;BME280;7922;43.622;1.476;2024-03-08T02:49:57;98667.53;;;10.29;70.69
15646;BME280;7922;43.622;1.476;2024-03-08T02:52:22;98666.97;;;10.39;70.54
15646;BME280;7922;43.622;1.476;2024-03-08T02:54:48;98588.81;;;9.90;70.54
15646;BME280;7922;43.622;1.476;2024-03-08T02:57:13;98523.78;;;9.59;70.14
15646;BME280;7922;43.622;1.476;2024-03-08T02:59:39;98649.88;;;10.30;70.41
15646;BME280;7922;43.622;1.476;2024-03-08T03:02:04;98524.44;;;9.62;69.96
15646;BME280;7922;43.622;1.476;2024-03-08T03:04:29;98630.09;;;10.21;69.68
15646;BME280;7922;43.622;1.476;2024-03-08T03:06:55;98548.88;;;9.80;69.56
15646;BME280;7922;43.622;1.476;2024-03-08T03:09:20;98657.50;;;10.34;69.52
15646;BME280;7922;43.622;1.476;2024-03-08T03:11:45;98612.63;;;10.04;69.98
15646;BME280;7922;43.622;1.476;2024-03-08T03:14:10;98607.91;;;10.09;70.05
15646;BME280;7922;43.622;1.476;2024-03-08T03:16:36;98666.97;;;10.39;70.33
15646;BME280;7922;43.622;1.476;2024-03-08T03:19:01;98602.41;;;9.98;70.84
15646;BME280;7922;43.622;1.476;2024-03-08T03:21:28;98656.28;;;10.40;70.91
15646;BME280;7922;43.622;1.476;2024-03-08T03:23:53;98504.41;;;9.58;71.13
15646;BME280;7922;43.622;1.476;2024-03-08T03:26:21;98623.84;;;10.22;71.04
15646;BME280;7922;43.622;1.476;2024-03-08T03:28:46;98653.94;;;10.35;72.04
15646;BME280;7922;43.622;1.476;2024-03-08T03:31:11;98651.84;;;10.26;71.65
15646;BME280;7922;43.622;1.476;2024-03-08T03:33:36;98545.19;;;9.69;72.13
15646;BME280;7922;43.622;1.476;2024-03-08T03:36:03;98624.53;;;10.26;71.29
15646;BME280;7922;43.622;1.476;2024-03-08T03:38:28;98613.56;;;10.18;72.06
15646;BME280;7922;43.622;1.476;2024-03-08T03:40:53;98586.28;;;10.03;72.22
15646;BME280;7922;43.622;1.476;2024-03-08T03:43:19;98610.06;;;10.17;71.61
15646;BME280;7922;43.622;1.476;2024-03-08T03:45:44;98565.13;;;9.88;72.16
15646;BME280;7922;43.622;1.476;2024-03-08T03:48:09;98615.16;;;10.20;72.37
15646;BME280;7922;43.622;1.476;2024-03-08T03:50:35;98605.22;;;10.24;71.86
15646;BME280;7922;43.622;1.476;2024-03-08T03:53:01;98566.34;;;9.97;72.11
15646;BME280;7922;43.622;1.476;2024-03-08T03:55:27;98615.06;;;10.36;71.99
15646;BME280;7922;43.622;1.476;2024-03-08T03:57:52;98486.00;;;9.57;72.14
15646;BME280;7922;43.622;1.476;2024-03-08T04:00:17;98525.94;;;9.81;72.69
15646;BME280;7922;43.622;1.476;2024-03-08T04:02:43;98585.78;;;10.10;72.46
15646;BME280;7922;43.622;1.476;2024-03-08T04:05:09;98463.84;;;9.45;71.97
15646;BME280;7922;43.622;1.476;2024-03-08T04:07:36;98541.97;;;9.92;71.42
15646;BME280;7922;43.622;1.476;2024-03-08T04:10:02;98522.72;;;9.76;71.29
15646;BME280;7922;43.622;1.476;2024-03-08T04:12:28;98569.56;;;10.02;71.58
15646;BME280;7922;43.622;1.476;2024-03-08T04:14:53;98609.13;;;10.18;71.51
15646;BME280;7922;43.622;1.476;2024-03-08T04:17:18;98503.56;;;9.58;72.01
15646;BME280;7922;43.622;1.476;2024-03-08T04:19:44;98610.25;;;10.14;72.09
15646;BME280;7922;43.622;1.476;2024-03-08T04:22:09;98631.13;;;10.19;72.37
15646;BME280;7922;43.622;1.476;2024-03-08T04:24:34;98525.47;;;9.60;72.55
15646;BME280;7922;43.622;1.476;2024-03-08T04:26:59;98585.69;;;9.98;72.78
15646;BME280;7922;43.622;1.476;2024-03-08T04:29:25;98585.03;;;9.94;73.35
15646;BME280;7922;43.622;1.476;2024-03-08T04:31:50;98587.59;;;9.96;73.62
15646;BME280;7922;43.622;1.476;2024-03-08T04:34:16;98623.38;;;10.16;73.98
15646;BME280;7922;43.622;1.476;2024-03-08T04:36:41;98556.81;;;9.80;74.03
15646;BME280;7922;43.622;1.476;2024-03-08T04:39:06;98624.69;;;10.23;74.58
15646;BME280;7922;43.622;1.476;2024-03-08T04:41:31;98583.81;;;10.00;75.26
15646;BME280;7922;43.622;1.476;2024-03-08T04:43:57;98524.22;;;9.65;75.44
15646;BME280;7922;43.622;1.476;2024-03-08T04:46:23;98614.63;;;10.29;74.91
15646;BME280;7922;43.622;1.476;2024-03-08T04:48:48;98604.03;;;10.29;75.01
15646;BME280;7922;43.622;1.476;2024-03-08T04:51:14;98610.50;;;10.38;74.86
15646;BME280;7922;43.622;1.476;2024-03-08T04:53:39;98503.66;;;9.71;75.20
15646;BME280;7922;43.622;1.476;2024-03-08T04:56:04;98509.00;;;9.83;75.17
15646;BME280;7922;43.622;1.476;2024-03-08T04:58:30;98570.75;;;10.25;75.93
15646;BME280;7922;43.622;1.476;2024-03-08T05:00:55;98531.66;;;10.02;75.92
15646;BME280;7922;43.622;1.476;2024-03-08T05:03:20;98557.81;;;10.21;75.79
15646;BME280;7922;43.622;1.476;2024-03-08T05:05:46;98452.19;;;9.62;76.29
15646;BME280;7922;43.622;1.476;2024-03-08T05:08:11;98517.06;;;10.09;76.85
15646;BME280;7922;43.622;1.476;2024-03-08T05:10:36;98479.25;;;9.80;76.52
15646;BME280;7922;43.622;1.476;2024-03-08T05:13:04;98511.84;;;10.22;75.92
15646;BME280;7922;43.622;1.476;2024-03-08T05:15:30;98536.81;;;10.32;76.55
15646;BME280;7922;43.622;1.476;2024-03-08T05:17:55;98446.69;;;9.79;76.33
15646;BME280;7922;43.622;1.476;2024-03-08T05:20:20;98517.53;;;10.30;76.47
15646;BME280;7922;43.622;1.476;2024-03-08T05:22:45;98513.09;;;10.30;76.25
15646;BME280;7922;43.622;1.476;2024-03-08T05:25:11;98368.28;;;9.51;76.59
15646;BME280;7922;43.622;1.476;2024-03-08T05:27:36;98394.28;;;9.72;76.64
15646;BME280;7922;43.622;1.476;2024-03-08T05:30:03;98521.03;;;10.57;76.45
15646;BME280;7922;43.622;1.476;2024-03-08T05:32:28;98483.56;;;10.36;76.26
15646;BME280;7922;43.622;1.476;2024-03-08T05:34:53;98533.44;;;10.57;76.88
15646;BME280;7922;43.622;1.476;2024-03-08T05:37:19;98504.88;;;10.35;76.03
15646;BME280;7922;43.622;1.476;2024-03-08T05:39:44;98534.91;;;10.61;76.41
15646;BME280;7922;43.622;1.476;2024-03-08T05:42:09;98495.13;;;10.35;76.42
15646;BME280;7922;43.622;1.476;2024-03-08T05:44:35;98533.00;;;10.63;76.28
15646;BME280;7922;43.622;1.476;2024-03-08T05:47:00;98394.94;;;9.75;76.42
15646;BME280;7922;43.622;1.476;2024-03-08T05:49:25;98523.97;;;10.53;76.18
15646;BME280;7922;43.622;1.476;2024-03-08T05:51:50;98492.47;;;10.35;77.16
15646;BME280;7922;43.622;1.476;2024-03-08T05:54:16;98413.72;;;9.85;77.61
15646;BME280;7922;43.622;1.476;2024-03-08T05:56:41;98389.19;;;9.69;77.90
15646;BME280;7922;43.622;1.476;2024-03-08T05:59:06;98565.84;;;10.60;78.08
15646;BME280;7922;43.622;1.476;2024-03-08T06:01:32;98514.81;;;10.31;78.53
15646;BME280;7922;43.622;1.476;2024-03-08T06:03:57;98572.66;;;10.65;79.12
15646;BME280;7922;43.622;1.476;2024-03-08T06:06:23;98454.84;;;10.03;79.18
15646;BME280;7922;43.622;1.476;2024-03-08T06:08:49;98535.50;;;10.52;80.25
15646;BME280;7922;43.622;1.476;2024-03-08T06:11:15;98497.41;;;10.27;80.40
15646;BME280;7922;43.622;1.476;2024-03-08T06:13:40;98571.94;;;10.75;81.22
15646;BME280;7922;43.622;1.476;2024-03-08T06:16:06;98542.88;;;10.61;81.98
15646;BME280;7922;43.622;1.476;2024-03-08T06:18:31;98485.69;;;10.31;82.04
15646;BME280;7922;43.622;1.476;2024-03-08T06:20:57;98544.88;;;10.70;82.42
15646;BME280;7922;43.622;1.476;2024-03-08T06:23:22;98445.09;;;10.04;82.70
15646;BME280;7922;43.622;1.476;2024-03-08T06:25:48;98512.84;;;10.48;83.04
15646;BME280;7922;43.622;1.476;2024-03-08T06:28:13;98568.88;;;10.81;83.55
15646;BME280;7922;43.622;1.476;2024-03-08T06:30:41;98566.88;;;10.85;83.65
15646;BME280;7922;43.622;1.476;2024-03-08T06:33:07;98428.78;;;9.97;84.34
15646;BME280;7922;43.622;1.476;2024-03-08T06:35:32;98436.22;;;10.05;84.27
15646;BME280;7922;43.622;1.476;2024-03-08T06:37:58;98474.06;;;10.20;85.29
15646;BME280;7922;43.622;1.476;2024-03-08T06:40:26;98520.06;;;10.58;85.36
15646;BME280;7922;43.622;1.476;2024-03-08T06:42:51;98501.84;;;10.27;85.97
15646;BME280;7922;43.622;1.476;2024-03-08T06:45:17;98567.78;;;10.71;86.09
15646;BME280;7922;43.622;1.476;2024-03-08T06:47:42;98436.56;;;9.86;86.91
15646;BME280;7922;43.622;1.476;2024-03-08T06:50:08;98606.72;;;10.83;87.31
15646;BME280;7922;43.622;1.476;2024-03-08T06:52:33;98612.97;;;10.82;87.09
15646;BME280;7922;43.622;1.476;2024-03-08T06:55:02;98561.97;;;10.52;87.64
15646;BME280;7922;43.622;1.476;2024-03-08T06:57:27;98612.81;;;10.71;87.71
15646;BME280;7922;43.622;1.476;2024-03-08T06:59:53;98588.81;;;10.60;88.50
15646;BME280;7922;43.622;1.476;2024-03-08T07:02:18;98565.47;;;10.52;88.42
15646;BME280;7922;43.622;1.476;2024-03-08T07:04:43;98490.47;;;9.98;88.19
15646;BME280;7922;43.622;1.476;2024-03-08T07:07:09;98623.00;;;10.77;88.59
15646;BME280;7922;43.622;1.476;2024-03-08T07:09:34;98503.13;;;10.07;88.28
15646;BME280;7922;43.622;1.476;2024-03-08T07:11:59;98623.94;;;10.76;89.00
15646;BME280;7922;43.622;1.476;2024-03-08T07:14:24;98584.84;;;10.53;89.85
15646;BME280;7922;43.622;1.476;2024-03-08T07:16:50;98627.94;;;10.69;90.28
15646;BME280;7922;43.622;1.476;2024-03-08T07:19:16;98568.47;;;10.33;91.49
15646;BME280;7922;43.622;1.476;2024-03-08T07:21:41;98547.78;;;10.11;92.28
15646;BME280;7922;43.622;1.476;2024-03-08T07:24:06;98574.78;;;10.17;93.21
15646;BME280;7922;43.622;1.476;2024-03-08T07:26:34;98636.78;;;10.55;94.39
15646;BME280;7922;43.622;1.476;2024-03-08T07:28:59;98599.69;;;10.28;95.52
15646;BME280;7922;43.622;1.476;2024-03-08T07:31:24;98586.16;;;10.19;97.05
15646;BME280;7922;43.622;1.476;2024-03-08T07:33:50;98639.19;;;10.46;98.07
15646;BME280;7922;43.622;1.476;2024-03-08T07:36:15;98622.91;;;10.38;99.57
15646;BME280;7922;43.622;1.476;2024-03-08T07:38:40;98599.06;;;10.23;100.00
15646;BME280;7922;43.622;1.476;2024-03-08T07:41:06;98614.41;;;10.32;100.00
15646;BME280;7922;43.622;1.476;2024-03-08T07:43:31;98612.91;;;10.28;100.00
15646;BME280;7922;43.622;1.476;2024-03-08T07:45:56;98614.03;;;10.24;100.00
15646;BME280;7922;43.622;1.476;2024-03-08T07:48:21;98509.41;;;9.63;100.00
15646;BME280;7922;43.622;1.476;2024-03-08T07:50:47;98497.22;;;9.60;100.00
15646;BME280;7922;43.622;1.476;2024-03-08T07:53:12;98554.78;;;9.98;100.00
15646;BME280;7922;43.622;1.476;2024-03-08T07:55:37;98554.72;;;10.00;100.00
15646;BME280;7922;43.622;1.476;2024-03-08T07:58:03;98602.69;;;10.36;100.00
15646;BME280;7922;43.622;1.476;2024-03-08T08:00:29;98587.00;;;10.33;100.00
15646;BME280;7922;43.622;1.476;2024-03-08T08:02:54;98500.88;;;9.86;100.00
15646;BME280;7922;43.622;1.476;2024-03-08T08:05:20;98557.69;;;10.22;100.00
15646;BME280;7922;43.622;1.476;2024-03-08T08:07:45;98515.56;;;10.05;100.00
15646;BME280;7922;43.622;1.476;2024-03-08T08:10:13;98440.09;;;9.58;100.00
15646;BME280;7922;43.622;1.476;2024-03-08T08:12:38;98555.63;;;10.27;100.00
15646;BME280;7922;43.622;1.476;2024-03-08T08:15:04;98519.00;;;10.07;100.00
15646;BME280;7922;43.622;1.476;2024-03-08T08:17:30;98560.50;;;10.48;100.00
15646;BME280;7922;43.622;1.476;2024-03-08T08:19:55;98430.66;;;9.68;100.00
15646;BME280;7922;43.622;1.476;2024-03-08T08:22:20;98509.53;;;10.17;100.00
15646;BME280;7922;43.622;1.476;2024-03-08T08:24:48;98531.41;;;10.33;100.00
15646;BME280;7922;43.622;1.476;2024-03-08T08:27:13;98428.09;;;9.81;100.00
15646;BME280;7922;43.622;1.476;2024-03-08T08:29:38;98536.31;;;10.40;100.00
15646;BME280;7922;43.622;1.476;2024-03-08T08:32:04;98494.06;;;10.24;100.00
15646;BME280;7922;43.622;1.476;2024-03-08T08:34:29;98487.19;;;10.21;100.00
15646;BME280;7922;43.622;1.476;2024-03-08T08:36:57;98506.44;;;10.38;100.00
15646;BME280;7922;43.622;1.476;2024-03-08T08:39:22;98499.84;;;10.30;100.00
15646;BME280;7922;43.622;1.476;2024-03-08T08:41:47;98463.31;;;10.08;100.00
15646;BME280;7922;43.622;1.476;2024-03-08T08:44:13;98513.09;;;10.30;100.00
15646;BME280;7922;43.622;1.476;2024-03-08T08:46:38;98532.72;;;10.41;100.00
15646;BME280;7922;43.622;1.476;2024-03-08T08:49:04;98524.50;;;10.31;100.00
15646;BME280;7922;43.622;1.476;2024-03-08T08:51:30;98414.06;;;9.66;100.00
15646;BME280;7922;43.622;1.476;2024-03-08T08:53:55;98333.78;;;9.26;100.00
15646;BME280;7922;43.622;1.476;2024-03-08T08:56:20;98455.56;;;10.05;100.00
15646;BME280;7922;43.622;1.476;2024-03-08T08:58:46;98464.03;;;10.25;100.00
15646;BME280;7922;43.622;1.476;2024-03-08T09:01:11;98443.38;;;10.17;100.00
15646;BME280;7922;43.622;1.476;2024-03-08T09:03:39;98378.56;;;9.83;100.00
15646;BME280;7922;43.622;1.476;2024-03-08T09:06:05;98462.91;;;10.29;100.00
15646;BME280;7922;43.622;1.476;2024-03-08T09:08:30;98420.13;;;9.95;100.00
15646;BME280;7922;43.622;1.476;2024-03-08T09:10:56;98480.47;;;10.30;100.00
15646;BME280;7922;43.622;1.476;2024-03-08T09:13:21;98483.75;;;10.06;100.00
15646;BME280;7922;43.622;1.476;2024-03-08T09:15:46;98487.00;;;9.83;100.00
15646;BME280;7922;43.622;1.476;2024-03-08T09:18:11;98479.28;;;9.51;100.00
15646;BME280;7922;43.622;1.476;2024-03-08T09:20:37;98407.38;;;8.75;100.00
15646;BME280;7922;43.622;1.476;2024-03-08T09:23:03;98527.16;;;9.32;100.00
15646;BME280;7922;43.622;1.476;2024-03-08T09:25:28;98491.88;;;9.19;100.00
15646;BME280;7922;43.622;1.476;2024-03-08T09:27:53;98519.78;;;9.23;100.00
15646;BME280;7922;43.622;1.476;2024-03-08T09:30:19;98464.41;;;8.63;100.00
15646;BME280;7922;43.622;1.476;2024-03-08T09:32:44;98535.63;;;9.09;100.00
15646;BME280;7922;43.622;1.476;2024-03-08T09:35:09;98438.59;;;8.38;100.00
15646;BME280;7922;43.622;1.476;2024-03-08T09:37:35;98472.66;;;8.57;100.00
15646;BME280;7922;43.622;1.476;2024-03-08T09:40:01;98533.44;;;9.01;100.00
15646;BME280;7922;43.622;1.476;2024-03-08T09:42:26;98514.28;;;8.98;100.00
15646;BME280;7922;43.622;1.476;2024-03-08T09:44:51;98515.78;;;9.02;100.00
15646;BME280;7922;43.622;1.476;2024-03-08T09:47:17;98579.34;;;9.43;100.00
15646;BME280;7922;43.622;1.476;2024-03-08T09:49:43;98480.78;;;8.84;100.00
15646;BME280;7922;43.622;1.476;2024-03-08T09:52:08;98588.13;;;9.44;100.00
15646;BME280;7922;43.622;1.476;2024-03-08T09:54:34;98425.91;;;8.44;100.00
15646;BME280;7922;43.622;1.476;2024-03-08T09:57:00;98541.56;;;9.12;100.00
15646;BME280;7922;43.622;1.476;2024-03-08T09:59:25;98469.13;;;8.58;100.00
15646;BME280;7922;43.622;1.476;2024-03-08T10:01:51;98602.09;;;9.31;100.00
15646;BME280;7922;43.622;1.476;2024-03-08T10:04:16;98560.31;;;8.78;100.00
15646;BME280;7922;43.622;1.476;2024-03-08T10:06:42;98571.81;;;9.07;100.00
15646;BME280;7922;43.622;1.476;2024-03-08T10:09:07;98552.13;;;9.12;100.00
15646;BME280;7922;43.622;1.476;2024-03-08T10:11:33;98528.22;;;9.00;100.00
15646;BME280;7922;43.622;1.476;2024-03-08T10:13:59;98505.19;;;8.87;100.00
15646;BME280;7922;43.622;1.476;2024-03-08T10:16:27;98491.63;;;8.79;100.00
15646;BME280;7922;43.622;1.476;2024-03-08T10:18:52;98478.88;;;8.72;100.00
15646;BME280;7922;43.622;1.476;2024-03-08T10:21:17;98535.06;;;9.18;98.63
15646;BME280;7922;43.622;1.476;2024-03-08T10:23:42;98492.34;;;9.11;98.39
15646;BME280;7922;43.622;1.476;2024-03-08T10:26:17;98456.19;;;9.26;98.89
15646;BME280;7922;43.622;1.476;2024-03-08T10:28:48;98431.56;;;9.11;100.00
15646;BME280;7922;43.622;1.476;2024-03-08T10:31:14;98426.47;;;9.23;99.34
15646;BME280;7922;43.622;1.476;2024-03-08T10:33:40;98386.00;;;9.08;98.97
15646;BME280;7922;43.622;1.476;2024-03-08T10:36:07;98383.38;;;8.94;100.00
15646;BME280;7922;43.622;1.476;2024-03-08T10:38:36;98246.41;;;8.02;100.00
15646;BME280;7922;43.622;1.476;2024-03-08T10:41:03;98244.38;;;8.21;100.00
15646;BME280;7922;43.622;1.476;2024-03-08T10:43:33;98373.91;;;8.89;100.00
15646;BME280;7922;43.622;1.476;2024-03-08T10:49:08;98256.66;;;8.51;98.48
15646;BME280;7922;43.622;1.476;2024-03-08T10:51:38;98324.16;;;8.83;97.65
15646;BME280;7922;43.622;1.476;2024-03-08T10:54:06;98329.91;;;9.04;97.17
15646;BME280;7922;43.622;1.476;2024-03-08T10:56:31;98375.94;;;9.56;93.34
15646;BME280;7922;43.622;1.476;2024-03-08T10:58:57;98409.84;;;9.76;91.96
15646;BME280;7922;43.622;1.476;2024-03-08T11:01:22;98419.75;;;10.14;92.11
15646;BME280;7922;43.622;1.476;2024-03-08T11:03:48;98497.81;;;11.14;91.78
15646;BME280;7922;43.622;1.476;2024-03-08T11:06:15;98418.53;;;11.11;86.47
15646;BME280;7922;43.622;1.476;2024-03-08T11:08:41;98496.56;;;12.07;83.31
15646;BME280;7922;43.622;1.476;2024-03-08T11:11:26;98515.84;;;12.22;83.78
15646;BME280;7922;43.622;1.476;2024-03-08T11:13:53;98482.19;;;11.86;83.47
15646;BME280;7922;43.622;1.476;2024-03-08T11:18:50;98477.72;;;11.86;84.06
15646;BME280;7922;43.622;1.476;2024-03-08T11:21:18;98537.91;;;12.22;84.27
15646;BME280;7922;43.622;1.476;2024-03-08T11:23:43;98563.31;;;12.50;83.20
15646;BME280;7922;43.622;1.476;2024-03-08T11:26:35;98558.59;;;13.02;80.87
15646;BME280;7922;43.622;1.476;2024-03-08T11:32:08;98546.94;;;13.85;75.09
15646;BME280;7922;43.622;1.476;2024-03-08T11:34:34;98559.13;;;14.21;73.25
15646;BME280;7922;43.622;1.476;2024-03-08T11:36:59;98528.63;;;14.14;72.75
15646;BME280;7922;43.622;1.476;2024-03-08T11:39:26;98567.47;;;14.28;69.34
15646;BME280;7922;43.622;1.476;2024-03-08T11:41:51;98550.78;;;14.03;68.62
15646;BME280;7922;43.622;1.476;2024-03-08T11:44:16;98559.63;;;13.70;70.56
15646;BME280;7922;43.622;1.476;2024-03-08T11:46:42;98589.88;;;13.69;71.55
15646;BME280;7922;43.622;1.476;2024-03-08T11:49:07;98577.53;;;13.68;73.26
15646;BME280;7922;43.622;1.476;2024-03-08T11:51:33;98557.41;;;13.30;71.28
15646;BME280;7922;43.622;1.476;2024-03-08T11:53:58;98574.56;;;13.37;71.58
15646;BME280;7922;43.622;1.476;2024-03-08T11:56:24;98566.34;;;13.05;68.61
15646;BME280;7922;43.622;1.476;2024-03-08T11:58:54;98503.38;;;12.35;72.38
15646;BME280;7922;43.622;1.476;2024-03-08T12:01:20;98562.31;;;12.64;72.08
15646;BME280;7922;43.622;1.476;2024-03-08T12:03:52;98553.53;;;12.51;73.04
15646;BME280;7922;43.622;1.476;2024-03-08T12:06:18;98587.75;;;12.80;73.87
15646;BME280;7922;43.622;1.476;2024-03-08T12:08:43;98534.28;;;12.60;75.14
15646;BME280;7922;43.622;1.476;2024-03-08T12:11:08;98546.78;;;12.34;75.61
15646;BME280;7922;43.622;1.476;2024-03-08T12:13:34;98525.16;;;12.51;74.85
15646;BME280;7922;43.622;1.476;2024-03-08T12:16:03;98459.59;;;12.17;74.55
15646;BME280;7922;43.622;1.476;2024-03-08T12:18:29;98529.81;;;12.61;74.12
15646;BME280;7922;43.622;1.476;2024-03-08T12:21:25;98552.31;;;12.68;74.18
15646;BME280;7922;43.622;1.476;2024-03-08T12:24:09;98516.56;;;12.48;74.29
15646;BME280;7922;43.622;1.476;2024-03-08T12:26:36;98551.06;;;12.61;72.70
15646;BME280;7922;43.622;1.476;2024-03-08T12:29:19;98443.53;;;11.81;71.15
15646;BME280;7922;43.622;1.476;2024-03-08T12:31:46;98430.81;;;11.87;71.80
15646;BME280;7922;43.622;1.476;2024-03-08T12:34:12;98449.69;;;11.82;73.06
15646;BME280;7922;43.622;1.476;2024-03-08T12:36:37;98524.03;;;12.19;71.69
15646;BME280;7922;43.622;1.476;2024-03-08T12:39:02;98490.53;;;12.29;72.65
15646;BME280;7922;43.622;1.476;2024-03-08T12:41:28;98504.84;;;12.39;71.64
15646;BME280;7922;43.622;1.476;2024-03-08T12:43:53;98505.81;;;12.38;72.50
15646;BME280;7922;43.622;1.476;2024-03-08T12:46:19;98495.78;;;12.18;73.54
15646;BME280;7922;43.622;1.476;2024-03-08T12:48:45;98479.06;;;12.28;72.70
15646;BME280;7922;43.622;1.476;2024-03-08T12:51:10;98535.63;;;12.66;71.13
15646;BME280;7922;43.622;1.476;2024-03-08T12:53:35;98534.94;;;12.75;71.80
15646;BME280;7922;43.622;1.476;2024-03-08T12:56:01;98425.25;;;12.02;71.70
15646;BME280;7922;43.622;1.476;2024-03-08T12:58:26;98382.91;;;11.64;73.71
15646;BME280;7922;43.622;1.476;2024-03-08T13:00:52;98418.06;;;11.92;73.98
15646;BME280;7922;43.622;1.476;2024-03-08T13:03:17;98457.84;;;12.28;73.32
15646;BME280;7922;43.622;1.476;2024-03-08T13:05:43;98497.63;;;12.76;74.88
15646;BME280;7922;43.622;1.476;2024-03-08T13:08:08;98506.69;;;12.50;73.13
15646;BME280;7922;43.622;1.476;2024-03-08T13:10:34;98485.66;;;12.23;72.73
15646;BME280;7922;43.622;1.476;2024-03-08T13:12:59;98497.13;;;12.23;72.15
15646;BME280;7922;43.622;1.476;2024-03-08T13:15:24;98477.38;;;12.03;71.96